Time;durP1;ratioP1;P1;durP2;ratioP2;P2;SDS_P1;SDS_P2;PMS_P1;PMS_P2;Temp;Humidity;BMP_temperature;BMP_pressure;BME280_temperature;BME280_humidity;BME280_pressure;Samples;Min_cycle;Max_cycle;Signal;HPM_P1;HPM_P2
2022/04/28 00:01:33;;;;;;;4.90;4.03;;;16.00;74.20;;;;;;1825180;79;21130;-58
2022/04/28 00:04:02;;;;;;;4.67;3.75;;;15.90;74.30;;;;;;1825146;79;21053;-58
2022/04/28 00:06:31;;;;;;;4.47;3.70;;;15.90;74.50;;;;;;1825269;79;21071;-58
2022/04/28 00:09:01;;;;;;;9.58;4.22;;;15.90;74.50;;;;;;1825085;79;21083;-58
2022/04/28 00:11:30;;;;;;;6.53;4.25;;;15.90;74.30;;;;;;1825166;79;21082;-58
2022/04/28 00:13:59;;;;;;;6.30;3.50;;;15.80;74.40;;;;;;1825115;79;21079;-58
2022/04/28 00:16:41;;;;;;;5.92;3.98;;;15.80;74.60;;;;;;1825130;79;21075;-58
2022/04/28 00:19:24;;;;;;;5.00;3.95;;;15.80;74.80;;;;;;1798615;80;21577;-58
2022/04/28 00:21:53;;;;;;;4.87;3.47;;;15.80;74.70;;;;;;1798547;80;21123;-58
2022/04/28 00:24:23;;;;;;;6.75;4.17;;;15.80;74.80;;;;;;1798489;80;21057;-58
2022/04/28 00:26:52;;;;;;;6.80;3.25;;;15.80;75.00;;;;;;1798603;80;21092;-58
2022/04/28 00:29:21;;;;;;;5.15;3.35;;;15.70;74.90;;;;;;1798590;80;21092;-58
2022/04/28 00:31:51;;;;;;;7.33;3.98;;;15.70;75.00;;;;;;1798541;80;21053;-58
2022/04/28 00:34:20;;;;;;;8.73;3.80;;;15.70;75.10;;;;;;1798338;80;21190;-58
2022/04/28 00:36:49;;;;;;;5.55;3.65;;;15.70;75.20;;;;;;1798412;80;21054;-58
2022/04/28 00:39:19;;;;;;;6.35;3.27;;;15.60;75.30;;;;;;1798381;80;21131;-58
2022/04/28 00:41:48;;;;;;;5.28;3.50;;;15.60;75.30;;;;;;1798370;80;21033;-58
2022/04/28 00:44:17;;;;;;;5.12;4.37;;;15.50;75.30;;;;;;1798372;80;21570;-58
2022/04/28 00:46:47;;;;;;;28.27;5.33;;;15.50;75.30;;;;;;1798385;80;21061;-58
2022/04/28 00:52:04;;;;;;;21.70;4.85;;;15.40;75.50;;;;;;1798498;80;21077;-58
2022/04/28 00:54:34;;;;;;;16.23;4.75;;;15.30;75.70;;;;;;1798367;80;21126;-58
2022/04/28 00:57:04;;;;;;;24.20;5.95;;;15.20;75.90;;;;;;1798455;80;21073;-58
2022/04/28 00:59:38;;;;;;;11.18;4.70;;;15.20;76.10;;;;;;1798458;80;21056;-58
2022/04/28 01:02:05;;;;;;;7.85;4.20;;;15.20;76.10;;;;;;1798235;80;21053;-58
2022/04/28 01:04:35;;;;;;;4.65;4.00;;;15.20;76.00;;;;;;1798508;80;21061;-58
2022/04/28 01:07:05;;;;;;;5.83;3.85;;;15.10;76.20;;;;;;1798630;80;21136;-58
2022/04/28 01:09:38;;;;;;;9.30;4.45;;;15.10;76.40;;;;;;1798347;80;21053;-59
2022/04/28 01:12:17;;;;;;;9.33;4.15;;;15.00;76.40;;;;;;1798338;80;21101;-59
2022/04/28 01:14:50;;;;;;;6.92;4.25;;;15.00;76.60;;;;;;1798190;80;21117;-58
2022/04/28 01:17:21;;;;;;;6.55;3.92;;;15.10;76.80;;;;;;1798431;80;21135;-58
2022/04/28 01:19:57;;;;;;;6.85;4.00;;;15.10;76.80;;;;;;1787967;80;21089;-58
2022/04/28 01:22:27;;;;;;;5.72;4.25;;;15.10;76.80;;;;;;1798550;80;21111;-58
2022/04/28 01:24:57;;;;;;;6.17;4.33;;;15.10;76.80;;;;;;1798605;80;21048;-58
2022/04/28 01:27:26;;;;;;;6.20;4.12;;;15.10;77.00;;;;;;1798481;80;21128;-58
2022/04/28 01:29:55;;;;;;;5.45;4.00;;;15.00;76.90;;;;;;1798395;80;21511;-58
2022/04/28 01:32:24;;;;;;;5.08;3.92;;;14.90;76.90;;;;;;1798427;80;21537;-58
2022/04/28 01:34:54;;;;;;;27.42;5.25;;;14.90;77.10;;;;;;1798462;80;21483;-58
2022/04/28 01:37:25;;;;;;;15.72;4.55;;;14.90;77.20;;;;;;1790631;80;21108;-58
2022/04/28 01:39:56;;;;;;;6.40;4.30;;;14.80;77.40;;;;;;1798409;80;21049;-59
2022/04/28 01:42:26;;;;;;;10.65;4.62;;;14.80;77.40;;;;;;1798367;80;21120;-58
2022/04/28 01:44:56;;;;;;;7.25;3.95;;;14.80;77.80;;;;;;1798474;80;21057;-58
2022/04/28 01:47:26;;;;;;;7.20;4.17;;;14.90;77.60;;;;;;1798540;80;21158;-58
2022/04/28 01:49:57;;;;;;;7.03;4.33;;;14.80;77.40;;;;;;1796266;80;21108;-58
2022/04/28 01:55:33;;;;;;;7.72;4.87;;;14.80;77.60;;;;;;1798569;80;21096;-58
2022/04/28 01:58:07;;;;;;;6.28;4.65;;;14.70;77.70;;;;;;1797528;80;21171;-58
2022/04/28 02:00:55;;;;;;;8.53;5.40;;;14.70;77.60;;;;;;1733459;82;21088;-58
2022/04/28 02:03:25;;;;;;;7.42;4.15;;;14.70;77.70;;;;;;1733234;81;21078;-57
2022/04/28 02:05:55;;;;;;;6.92;4.47;;;14.70;77.90;;;;;;1757580;80;21064;-58
2022/04/28 02:08:25;;;;;;;7.12;5.37;;;14.70;78.10;;;;;;1798373;80;21061;-58
2022/04/28 02:10:54;;;;;;;8.20;5.28;;;14.70;78.30;;;;;;1798386;80;21124;-58
2022/04/28 02:13:41;;;;;;;10.75;5.55;;;14.70;78.40;;;;;;1798285;80;21082;-58
2022/04/28 02:16:15;;;;;;;7.08;5.53;;;14.70;78.30;;;;;;1792548;80;21086;-58
2022/04/28 02:19:01;;;;;;;8.20;4.78;;;14.70;78.50;;;;;;1793708;80;21121;-58
2022/04/28 02:21:30;;;;;;;9.05;4.55;;;14.80;78.50;;;;;;1789942;80;21061;-58
2022/04/28 02:24:00;;;;;;;7.87;4.87;;;14.80;78.60;;;;;;1789959;80;21136;-58
2022/04/28 02:26:30;;;;;;;7.45;4.78;;;14.80;78.70;;;;;;1790098;80;21072;-58
2022/04/28 02:28:59;;;;;;;16.10;7.33;;;14.80;78.70;;;;;;1789926;80;21037;-58
2022/04/28 02:31:29;;;;;;;12.55;6.50;;;14.70;78.60;;;;;;1789979;79;21092;-58
2022/04/28 02:33:58;;;;;;;13.30;6.08;;;14.70;78.80;;;;;;1789946;80;21073;-58
2022/04/28 02:36:29;;;;;;;7.17;4.80;;;14.70;78.90;;;;;;1787060;80;21506;-58
2022/04/28 02:38:59;;;;;;;11.20;5.75;;;14.80;79.20;;;;;;1789969;80;21061;-58
2022/04/28 02:41:28;;;;;;;10.08;4.83;;;14.80;79.20;;;;;;1791429;80;21174;-57
2022/04/28 02:44:00;;;;;;;7.00;4.37;;;14.80;79.10;;;;;;1789888;79;21183;-58
2022/04/28 02:46:31;;;;;;;9.48;5.25;;;14.90;79.10;;;;;;1789958;80;21567;-58
2022/04/28 02:49:02;;;;;;;15.20;5.17;;;14.90;79.00;;;;;;1789950;79;21041;-58
2022/04/28 02:51:33;;;;;;;9.83;5.28;;;14.90;79.10;;;;;;1789959;79;21132;-58
2022/04/28 02:54:02;;;;;;;8.50;4.60;;;14.90;79.00;;;;;;1789903;80;21123;-57
2022/04/28 02:56:32;;;;;;;9.78;5.10;;;14.90;79.00;;;;;;1789969;80;21037;-58
2022/04/28 02:59:01;;;;;;;30.55;6.37;;;14.90;79.10;;;;;;1789946;80;21057;-57
2022/04/28 03:01:32;;;;;;;13.83;5.30;;;14.90;79.00;;;;;;1789937;80;21127;-58
2022/04/28 03:04:02;;;;;;;24.35;7.33;;;14.90;79.10;;;;;;1790034;80;21131;-58
2022/04/28 03:12:06;;;;;;;9.18;5.00;;;15.00;78.90;;;;;;1790026;80;21072;-58
2022/04/28 03:14:36;;;;;;;9.83;5.42;;;15.10;78.80;;;;;;1789840;80;21037;-58
2022/04/28 03:17:06;;;;;;;11.60;5.30;;;15.10;78.80;;;;;;1790027;80;21056;-58
2022/04/28 03:19:35;;;;;;;12.03;5.35;;;15.10;78.70;;;;;;1789898;80;21093;-58
2022/04/28 03:22:05;;;;;;;9.00;4.50;;;15.10;78.70;;;;;;1789842;80;21077;-58
2022/04/28 03:24:34;;;;;;;11.12;4.75;;;15.00;78.60;;;;;;1790071;80;21163;-58
2022/04/28 03:27:04;;;;;;;13.03;4.65;;;15.10;78.80;;;;;;1789869;80;21134;-58
2022/04/28 03:29:36;;;;;;;9.55;4.83;;;15.10;78.90;;;;;;1790118;80;21057;-58
2022/04/28 03:32:08;;;;;;;13.32;4.67;;;15.10;78.80;;;;;;1790197;80;21029;-58
2022/04/28 03:34:37;;;;;;;10.95;4.67;;;15.20;78.90;;;;;;1788028;78;21483;-58
2022/04/28 03:37:06;;;;;;;19.20;5.55;;;15.30;78.90;;;;;;1789997;80;21123;-58
2022/04/28 03:39:37;;;;;;;9.53;4.80;;;15.40;78.70;;;;;;1789998;79;21061;-58
2022/04/28 03:42:07;;;;;;;10.48;4.78;;;15.50;78.10;;;;;;1790002;80;21057;-58
2022/04/28 03:44:36;;;;;;;6.50;4.72;;;15.60;78.00;;;;;;1790044;80;21625;-58
2022/04/28 03:47:06;;;;;;;7.47;4.62;;;15.60;77.90;;;;;;1790034;80;21077;-58
2022/04/28 03:49:36;;;;;;;7.87;5.12;;;15.70;77.80;;;;;;1790094;80;21061;-58
2022/04/28 03:52:07;;;;;;;9.98;5.12;;;15.80;77.30;;;;;;1790014;80;21069;-58
2022/04/28 03:54:37;;;;;;;10.38;5.33;;;15.90;77.10;;;;;;1790091;80;21077;-58
2022/04/28 03:57:07;;;;;;;7.70;4.60;;;15.80;77.20;;;;;;1790071;80;21131;-57
2022/04/28 03:59:36;;;;;;;9.45;4.92;;;15.90;76.60;;;;;;1790104;80;21065;-58
2022/04/28 04:02:24;;;;;;;8.28;5.15;;;15.90;76.90;;;;;;1789924;80;21558;-58
2022/04/28 04:04:53;;;;;;;8.10;5.22;;;16.00;76.00;;;;;;1790134;80;21100;-58
2022/04/28 04:07:23;;;;;;;8.10;5.37;;;16.00;76.00;;;;;;1790091;80;21230;-58
2022/04/28 04:09:57;;;;;;;11.68;5.47;;;16.00;75.90;;;;;;1789960;80;21123;-58
2022/04/28 04:12:28;;;;;;;10.08;6.10;;;16.00;75.80;;;;;;1790240;79;21143;-58
2022/04/28 04:15:01;;;;;;;14.47;5.80;;;16.00;75.80;;;;;;1789917;80;21077;-58
2022/04/28 04:17:33;;;;;;;11.28;5.42;;;16.10;75.70;;;;;;1790196;79;21076;-58
2022/04/28 04:20:02;;;;;;;6.35;5.00;;;16.10;75.60;;;;;;1789966;80;21904;-58
2022/04/28 04:22:32;;;;;;;38.92;8.00;;;16.10;75.50;;;;;;1789995;80;21073;-58
2022/04/28 04:25:03;;;;;;;13.25;5.55;;;16.20;75.40;;;;;;1790102;80;21555;-58
2022/04/28 04:27:33;;;;;;;12.58;5.65;;;16.20;75.30;;;;;;1789983;80;21132;-58
2022/04/28 04:32:17;;;;;;;14.68;4.78;;;16.30;75.00;;;;;;1790156;79;21168;-58
2022/04/28 04:32:37;;;;;;;15.40;5.15;;;16.30;74.80;;;;;;1790156;79;21076;-58
2022/04/28 04:35:13;;;;;;;8.18;5.85;;;16.30;74.70;;;;;;1789079;80;21121;-58
2022/04/28 04:37:44;;;;;;;8.30;5.22;;;16.30;74.50;;;;;;1789995;79;21483;-57
2022/04/28 04:40:14;;;;;;;6.35;5.40;;;16.40;74.40;;;;;;1790037;80;21108;-58
2022/04/28 04:42:43;;;;;;;13.78;6.03;;;16.40;74.40;;;;;;1791615;79;21150;-59
2022/04/28 04:45:13;;;;;;;11.80;5.42;;;16.40;74.50;;;;;;1790048;80;21104;-59
2022/04/28 04:47:44;;;;;;;8.50;5.40;;;16.40;74.50;;;;;;1772819;80;21570;-59
2022/04/28 04:50:14;;;;;;;9.33;5.25;;;16.40;74.50;;;;;;1790147;79;21134;-59
2022/04/28 04:52:45;;;;;;;13.18;5.87;;;16.50;74.60;;;;;;1790180;79;21053;-59
2022/04/28 04:55:16;;;;;;;8.98;5.47;;;16.60;74.40;;;;;;1789964;79;21076;-59
2022/04/28 04:57:47;;;;;;;12.20;6.33;;;16.70;74.30;;;;;;1790134;79;21077;-59
2022/04/28 05:00:16;;;;;;;9.83;5.47;;;16.80;74.30;;;;;;1789976;80;21041;-59
2022/04/28 05:03:03;;;;;;;9.93;5.50;;;16.90;74.30;;;;;;1789957;80;21140;-59
2022/04/28 05:05:54;;;;;;;8.58;6.28;;;16.90;73.80;;;;;;1733485;83;21189;-59
2022/04/28 05:08:25;;;;;;;10.48;5.40;;;17.00;73.40;;;;;;1733431;81;21040;-59
2022/04/28 05:10:58;;;;;;;16.07;6.45;;;17.00;73.30;;;;;;1756392;80;21081;-59
2022/04/28 05:13:28;;;;;;;19.57;8.25;;;17.10;73.10;;;;;;1789976;80;21064;-59
2022/04/28 05:15:58;;;;;;;17.23;8.65;;;17.20;72.60;;;;;;1789952;79;21136;-59
2022/04/28 05:18:35;;;;;;;13.78;7.85;;;17.20;72.40;;;;;;1789440;80;21080;-59
2022/04/28 05:21:06;;;;;;;12.93;6.78;;;17.30;72.60;;;;;;1788865;79;21140;-59
2022/04/28 05:23:53;;;;;;;21.25;9.18;;;17.40;72.50;;;;;;1788018;80;21122;-59
2022/04/28 05:26:39;;;;;;;33.85;13.30;;;17.50;72.30;;;;;;1787112;80;21112;-59
2022/04/28 05:29:10;;;;;;;18.42;9.50;;;17.60;72.20;;;;;;1762640;80;21476;-59
2022/04/28 05:31:47;;;;;;;23.00;8.93;;;17.70;71.90;;;;;;1786801;79;21132;-59
2022/04/28 05:34:18;;;;;;;26.02;12.07;;;17.80;71.60;;;;;;1787646;80;21041;-59
2022/04/28 05:36:50;;;;;;;17.48;9.25;;;17.90;71.60;;;;;;1787773;79;21116;-59
2022/04/28 05:39:19;;;;;;;22.85;8.88;;;18.00;71.10;;;;;;1787966;80;21022;-59
2022/04/28 05:41:48;;;;;;;15.60;7.55;;;18.10;71.10;;;;;;1787912;80;21037;-59
2022/04/28 05:47:05;;;;;;;14.85;7.05;;;18.10;70.80;;;;;;1788112;80;21022;-59
2022/04/28 05:49:35;;;;;;;21.97;7.90;;;18.20;70.50;;;;;;1788047;80;21097;-59
2022/04/28 05:52:05;;;;;;;9.15;5.72;;;18.20;70.40;;;;;;1788052;80;21077;-59
2022/04/28 05:54:36;;;;;;;12.35;5.72;;;18.20;69.90;;;;;;1788249;80;21088;-59
2022/04/28 05:57:06;;;;;;;19.57;8.65;;;18.30;70.00;;;;;;1787993;80;21050;-59
2022/04/28 05:59:37;;;;;;;15.90;7.67;;;18.40;69.80;;;;;;1788150;80;21124;-59
2022/04/28 06:02:16;;;;;;;23.00;11.20;;;18.50;70.10;;;;;;1785660;80;21030;-59
2022/04/28 06:04:46;;;;;;;22.07;10.90;;;18.50;69.50;;;;;;1788087;80;21029;-59
2022/04/28 06:07:16;;;;;;;37.45;17.37;;;18.60;69.40;;;;;;1788012;80;21112;-59
2022/04/28 06:09:47;;;;;;;29.15;13.55;;;18.70;69.20;;;;;;1787703;80;21196;-59
2022/04/28 06:12:17;;;;;;;23.38;12.63;;;18.70;69.20;;;;;;1787992;80;21030;-59
2022/04/28 06:14:57;;;;;;;46.15;14.80;;;18.80;68.80;;;;;;1774027;80;21351;-59
2022/04/28 06:17:28;;;;;;;27.37;13.38;;;18.90;68.90;;;;;;1785402;80;21046;-59
2022/04/28 06:19:57;;;;;;;20.62;11.08;;;19.00;68.70;;;;;;1787899;80;21031;-59
2022/04/28 06:22:47;;;;;;;15.05;7.55;;;19.00;68.60;;;;;;1774158;80;21099;-59
2022/04/28 06:25:16;;;;;;;28.83;8.95;;;19.10;68.30;;;;;;1800650;80;21061;-59
2022/04/28 06:27:47;;;;;;;47.85;11.93;;;19.10;68.40;;;;;;1800391;79;21134;-58
2022/04/28 06:30:17;;;;;;;16.70;7.80;;;19.20;68.50;;;;;;1800478;80;21084;-59
2022/04/28 06:32:47;;;;;;;17.27;7.67;;;19.30;68.30;;;;;;1800406;80;21060;-59
2022/04/28 06:35:23;;;;;;;19.50;8.55;;;19.30;67.70;;;;;;1795615;80;21108;-59
2022/04/28 06:37:54;;;;;;;58.48;14.23;;;19.30;67.60;;;;;;1800462;80;21095;-59
2022/04/28 06:40:24;;;;;;;130.37;22.40;;;19.30;67.00;;;;;;1800499;80;21229;-59
2022/04/28 06:42:54;;;;;;;31.68;10.90;;;19.30;67.00;;;;;;1800472;80;21099;-59
2022/04/28 06:45:28;;;;;;;30.27;9.33;;;19.30;67.00;;;;;;1800368;80;21056;-59
2022/04/28 06:48:14;;;;;;;10.28;6.62;;;19.40;67.20;;;;;;1733326;82;21103;-59
2022/04/28 06:50:45;;;;;;;7.17;5.35;;;19.40;67.40;;;;;;1779643;80;21127;-59
2022/04/28 06:53:32;;;;;;;10.78;6.05;;;19.50;67.30;;;;;;1800440;80;21073;-59
2022/04/28 06:56:03;;;;;;;7.20;5.20;;;19.60;67.30;;;;;;1800429;79;21092;-59
2022/04/28 06:58:34;;;;;;;8.78;4.65;;;19.60;67.20;;;;;;1800420;79;21131;-59
2022/04/28 07:01:05;;;;;;;18.60;5.72;;;19.70;67.00;;;;;;1800335;79;21096;-59
2022/04/28 07:03:34;;;;;;;12.65;7.65;;;19.80;67.00;;;;;;1800461;80;21107;-59
2022/04/28 07:06:03;;;;;;;18.20;7.62;;;19.90;66.70;;;;;;1800598;80;21053;-59
2022/04/28 07:08:32;;;;;;;7.58;5.20;;;19.90;66.70;;;;;;1800636;80;21054;-59
2022/04/28 07:11:02;;;;;;;11.73;5.55;;;20.00;66.10;;;;;;1800524;80;21506;-59
2022/04/28 07:13:31;;;;;;;7.67;5.47;;;20.00;66.70;;;;;;1800595;80;21033;-59
2022/04/28 07:16:17;;;;;;;7.00;4.25;;;20.00;65.90;;;;;;1799520;79;21134;-59
2022/04/28 07:19:06;;;;;;;9.00;4.78;;;20.10;65.80;;;;;;1800536;80;21119;-59
2022/04/28 07:21:36;;;;;;;11.95;5.47;;;20.10;65.70;;;;;;1796218;80;21132;-59
2022/04/28 07:24:06;;;;;;;8.03;5.10;;;20.10;65.70;;;;;;1781368;80;21147;-59
2022/04/28 07:26:35;;;;;;;6.42;4.03;;;20.20;65.80;;;;;;1781299;80;21061;-59
2022/04/28 07:29:05;;;;;;;7.45;4.87;;;20.30;65.80;;;;;;1781272;80;21049;-59
2022/04/28 07:31:52;;;;;;;7.08;4.03;;;20.30;66.00;;;;;;1780862;80;21114;-59
2022/04/28 07:34:39;;;;;;;5.83;4.00;;;20.30;66.40;;;;;;1781361;80;21077;-59
2022/04/28 07:37:26;;;;;;;9.55;4.75;;;20.40;66.50;;;;;;1779937;80;21136;-58
2022/04/28 07:40:13;;;;;;;8.10;4.55;;;20.60;65.40;;;;;;1779316;80;21315;-59
2022/04/28 07:42:43;;;;;;;7.30;5.30;;;20.60;65.40;;;;;;1779146;80;21183;-58
2022/04/28 07:45:13;;;;;;;7.95;4.55;;;20.70;65.60;;;;;;1779453;80;21277;-58
2022/04/28 07:47:43;;;;;;;7.83;4.60;;;20.70;64.80;;;;;;1774685;80;21508;-60
2022/04/28 07:50:14;;;;;;;12.20;5.30;;;20.80;64.60;;;;;;1780180;80;21096;-58
2022/04/28 07:52:44;;;;;;;8.88;5.12;;;20.80;64.20;;;;;;1780698;80;21069;-57
2022/04/28 07:55:14;;;;;;;11.85;4.45;;;20.80;63.80;;;;;;1780906;80;21179;-57
2022/04/28 07:57:44;;;;;;;8.60;3.85;;;20.90;63.90;;;;;;1776020;80;21061;-58
2022/04/28 08:00:16;;;;;;;6.90;3.80;;;20.90;64.10;;;;;;1780392;80;21198;-58
2022/04/28 08:02:47;;;;;;;12.85;7.95;;;21.00;64.20;;;;;;1773327;80;21591;-57
2022/04/28 08:05:27;;;;;;;10.18;4.28;;;21.00;64.00;;;;;;1772829;80;21190;-57
2022/04/28 08:08:13;;;;;;;12.60;5.87;;;21.10;63.50;;;;;;1770636;80;21473;-58
2022/04/28 08:10:57;;;;;;;11.10;6.22;;;21.10;62.70;;;;;;1773148;80;21212;-59
2022/04/28 08:13:31;;;;;;;9.28;4.10;;;21.20;62.70;;;;;;1773171;81;21142;-60
2022/04/28 08:16:12;;;;;;;6.30;4.28;;;21.20;62.00;;;;;;1772811;79;21122;-59
2022/04/28 08:18:52;;;;;;;5.75;4.55;;;21.30;61.00;;;;;;1771761;80;21078;-58
2022/04/28 08:21:37;;;;;;;8.15;3.72;;;21.30;61.50;;;;;;1771272;79;21058;-57
2022/04/28 08:24:19;;;;;;;6.53;4.27;;;21.30;61.70;;;;;;1725456;82;21109;-58
2022/04/28 08:26:49;;;;;;;5.30;4.40;;;21.30;61.50;;;;;;1786263;80;21049;-59
2022/04/28 08:29:19;;;;;;;16.17;5.60;;;21.40;61.90;;;;;;1772838;80;21090;-58
2022/04/28 08:31:50;;;;;;;12.40;4.80;;;21.50;60.70;;;;;;1764842;81;21587;-57
2022/04/28 08:34:22;;;;;;;12.80;5.50;;;21.50;61.20;;;;;;1764975;81;21089;-56
2022/04/28 08:36:52;;;;;;;11.28;5.50;;;21.60;60.60;;;;;;1764939;81;21286;-57
2022/04/28 08:39:23;;;;;;;24.32;6.92;;;21.60;60.20;;;;;;1765347;81;21193;-58
2022/04/28 08:41:53;;;;;;;22.35;8.23;;;21.60;60.50;;;;;;1765136;81;21133;-58
2022/04/28 08:44:25;;;;;;;7.42;6.62;;;21.70;60.80;;;;;;1765001;81;21253;-57
2022/04/28 08:46:56;;;;;;;8.60;6.15;;;21.80;59.70;;;;;;1762666;81;21144;-57
2022/04/28 08:49:29;;;;;;;13.48;5.90;;;21.80;60.30;;;;;;1764804;81;21093;-58
2022/04/28 08:52:02;;;;;;;11.33;5.28;;;21.80;60.10;;;;;;1730075;81;21568;-59
2022/04/28 08:54:40;;;;;;;13.53;7.37;;;21.90;60.00;;;;;;1764970;81;21552;-59
2022/04/28 08:57:06;;;;;;;10.95;6.28;;;22.00;60.30;;;;;;1764207;81;21221;-60
2022/04/28 08:59:35;;;;;;;11.48;6.05;;;22.00;59.60;;;;;;1765186;81;21165;-58
2022/04/28 09:02:06;;;;;;;12.47;6.80;;;22.10;59.70;;;;;;1765186;81;21082;-58
2022/04/28 09:04:49;;;;;;;16.97;6.58;;;22.20;59.60;;;;;;1753627;81;21157;-60
2022/04/28 09:07:43;;;;;;;15.68;7.80;;;22.20;59.20;;;;;;1760146;81;21168;-58
2022/04/28 09:10:33;;;;;;;14.95;7.55;;;22.30;59.30;;;;;;1738441;82;21107;-61
2022/04/28 09:16:08;;;;;;;11.53;5.70;;;22.40;58.30;;;;;;1754823;81;21129;-60
2022/04/28 09:18:39;;;;;;;11.73;6.75;;;22.40;58.70;;;;;;1765313;81;21127;-58
2022/04/28 09:21:09;;;;;;;12.40;6.60;;;22.50;58.20;;;;;;1765304;81;21125;-58
2022/04/28 09:23:40;;;;;;;21.15;7.40;;;22.60;58.50;;;;;;1777665;80;21101;-60
2022/04/28 09:26:10;;;;;;;20.17;10.08;;;22.60;58.40;;;;;;1788536;80;21065;-58
2022/04/28 09:28:41;;;;;;;21.55;8.70;;;22.80;58.20;;;;;;1788749;80;21538;-60
2022/04/28 09:31:11;;;;;;;16.85;10.23;;;22.80;57.70;;;;;;1788837;80;21049;-60
2022/04/28 09:33:51;;;;;;;19.65;10.78;;;22.80;57.80;;;;;;1787626;80;21147;-60
2022/04/28 09:36:39;;;;;;;24.50;12.50;;;22.90;57.70;;;;;;1788647;80;21095;-61
2022/04/28 09:42:31;;;;;;;25.65;12.37;;;22.90;57.70;;;;;;1788705;80;21144;-59
2022/04/28 09:45:03;;;;;;;33.33;12.65;;;22.90;57.70;;;;;;1788740;80;21046;-57
2022/04/28 09:47:35;;;;;;;41.28;17.15;;;23.10;57.50;;;;;;1788202;80;21065;-59
2022/04/28 09:50:15;;;;;;;28.42;15.43;;;23.10;57.50;;;;;;1788679;80;21081;-60
2022/04/28 09:52:49;;;;;;;35.92;17.80;;;23.20;56.50;;;;;;1785229;80;21499;-57
2022/04/28 09:55:20;;;;;;;32.48;15.85;;;23.20;56.70;;;;;;1788570;80;21084;-59
2022/04/28 09:58:10;;;;;;;32.42;15.95;;;23.30;56.90;;;;;;1786195;80;21143;-60
2022/04/28 10:00:40;;;;;;;29.27;12.25;;;23.30;56.30;;;;;;1788698;80;21480;-58
2022/04/28 10:03:11;;;;;;;36.03;14.18;;;23.40;56.60;;;;;;1788643;80;21085;-64
2022/04/28 10:05:42;;;;;;;14.40;7.50;;;23.40;56.10;;;;;;1788704;80;21565;-58
2022/04/28 10:08:14;;;;;;;15.90;8.10;;;23.50;56.10;;;;;;1785321;80;21073;-60
2022/04/28 10:10:44;;;;;;;23.18;11.38;;;23.50;56.10;;;;;;1788729;80;21073;-59
2022/04/28 10:13:15;;;;;;;22.27;11.20;;;23.50;55.20;;;;;;1788777;80;21167;-58
2022/04/28 10:15:52;;;;;;;18.82;9.58;;;23.60;55.30;;;;;;1788265;80;21097;-58
2022/04/28 10:18:24;;;;;;;13.48;7.72;;;23.60;55.10;;;;;;1788687;80;21496;-61
2022/04/28 10:20:59;;;;;;;10.23;6.12;;;23.70;54.70;;;;;;1788675;80;21061;-59
2022/04/28 10:32:23;;;;;;;10.82;3.70;;;24.10;50.80;;;;;;1790218;80;20115;-59
2022/04/28 10:35:05;;;;;;;13.43;6.65;;;24.10;50.80;;;;;;1790089;80;21216;-60
2022/04/28 10:37:45;;;;;;;17.27;11.60;;;24.20;50.80;;;;;;1790196;80;21084;-59
2022/04/28 10:40:18;;;;;;;14.00;12.10;;;24.30;51.00;;;;;;1790140;80;21077;-60
2022/04/28 10:42:50;;;;;;;9.28;8.38;;;24.30;51.20;;;;;;1790168;80;21112;-59
2022/04/28 10:45:24;;;;;;;8.78;5.10;;;24.40;50.10;;;;;;1790277;80;21116;-58
2022/04/28 10:48:25;;;;;;;21.42;9.88;;;24.50;49.60;;;;;;1790333;80;21136;-59
2022/04/28 10:51:00;;;;;;;8.08;5.17;;;24.40;48.50;;;;;;1790312;80;21185;-57
2022/04/28 10:53:29;;;;;;;24.80;18.82;;;24.30;48.90;;;;;;1789248;79;21057;-57
2022/04/28 10:56:12;;;;;;;36.10;25.57;;;24.30;49.90;;;;;;1790188;80;21092;-58
2022/04/28 10:58:41;;;;;;;18.52;14.25;;;24.20;49.60;;;;;;1790307;80;21073;-57
2022/04/28 11:01:12;;;;;;;60.52;9.53;;;24.20;49.80;;;;;;1790288;80;21049;-58
2022/04/28 11:03:47;;;;;;;9.65;4.12;;;24.30;50.00;;;;;;1786185;79;21116;-58
2022/04/28 11:06:21;;;;;;;6.85;3.77;;;24.30;50.00;;;;;;1790529;80;21178;-58
2022/04/28 11:08:55;;;;;;;13.75;5.03;;;24.20;50.10;;;;;;1790413;80;21661;-57
2022/04/28 11:11:29;;;;;;;20.10;5.15;;;24.20;50.60;;;;;;1790443;80;21058;-62
2022/04/28 11:13:59;;;;;;;30.20;8.33;;;24.20;51.20;;;;;;1790909;80;21128;-57
2022/04/28 11:16:28;;;;;;;10.78;5.75;;;24.10;51.20;;;;;;1790920;80;21115;-57
2022/04/28 11:18:58;;;;;;;11.85;4.87;;;24.00;51.60;;;;;;1790898;80;21053;-57
2022/04/28 11:21:28;;;;;;;13.35;4.95;;;24.10;52.00;;;;;;1790982;80;21057;-58
2022/04/28 11:23:58;;;;;;;7.12;2.55;;;24.20;52.00;;;;;;1786749;80;21231;-57
2022/04/28 11:26:29;;;;;;;7.87;3.45;;;24.30;51.80;;;;;;1767101;80;21093;-57
2022/04/28 11:29:09;;;;;;;9.08;3.40;;;24.30;51.60;;;;;;1762767;81;21082;-57
2022/04/28 11:31:50;;;;;;;12.28;2.90;;;24.50;52.10;;;;;;1767096;81;21582;-57
2022/04/28 11:34:18;;;;;;;6.25;2.80;;;24.60;51.60;;;;;;1766953;81;21654;-58
2022/04/28 11:36:47;;;;;;;5.00;2.72;;;24.70;51.30;;;;;;1767801;81;21117;-57
2022/04/28 11:39:17;;;;;;;4.30;3.00;;;24.80;50.50;;;;;;1767682;81;21150;-57
2022/04/28 11:41:50;;;;;;;9.75;2.65;;;24.90;50.80;;;;;;1767799;80;21184;-58
2022/04/28 11:44:17;;;;;;;5.30;2.50;;;25.00;49.80;;;;;;1767560;80;21160;-57
2022/04/28 11:46:49;;;;;;;6.03;2.12;;;25.00;49.10;;;;;;1767742;80;21152;-57
2022/04/28 11:49:23;;;;;;;9.93;2.95;;;25.00;48.90;;;;;;1767124;80;21062;-58
2022/04/28 11:51:52;;;;;;;22.45;4.65;;;24.80;49.10;;;;;;1767974;81;21079;-57
2022/04/28 11:54:24;;;;;;;10.13;3.37;;;24.60;49.50;;;;;;1767916;81;21042;-58
2022/04/28 11:57:10;;;;;;;12.65;3.52;;;24.60;50.00;;;;;;1767821;81;21125;-57
2022/04/28 11:59:40;;;;;;;21.65;4.00;;;24.50;50.40;;;;;;1767808;80;21078;-57
2022/04/28 12:02:32;;;;;;;6.47;2.50;;;24.50;50.50;;;;;;1767682;81;21165;-57
2022/04/28 12:05:03;;;;;;;11.70;4.03;;;24.50;50.80;;;;;;1767833;81;21133;-58
2022/04/28 12:07:34;;;;;;;7.78;2.92;;;24.50;50.80;;;;;;1767848;80;21512;-57
2022/04/28 12:15:41;;;;;;;3.40;2.77;;;24.60;51.40;;;;;;1767846;80;21157;-57
2022/04/28 12:21:06;;;;;;;4.50;2.55;;;24.60;50.60;;;;;;1767837;80;21078;-57
2022/04/28 12:23:40;;;;;;;3.47;2.37;;;24.50;50.40;;;;;;1767745;81;21058;-58
2022/04/28 12:26:12;;;;;;;5.50;2.22;;;24.50;50.70;;;;;;1786081;80;21574;-58
2022/04/28 12:28:43;;;;;;;6.62;2.40;;;24.50;51.30;;;;;;1789560;80;21026;-58
2022/04/28 12:31:15;;;;;;;17.50;4.78;;;24.50;51.10;;;;;;1789532;80;21053;-58
2022/04/28 12:33:46;;;;;;;6.45;1.90;;;24.60;50.40;;;;;;1787989;80;21201;-58
2022/04/28 12:36:16;;;;;;;11.73;2.40;;;24.60;50.50;;;;;;1789643;80;21135;-58
2022/04/28 12:38:55;;;;;;;3.90;2.02;;;24.60;50.20;;;;;;1789605;80;21210;-58
2022/04/28 12:41:30;;;;;;;2.50;2.05;;;24.60;50.00;;;;;;1789419;80;21069;-58
2022/04/28 12:43:59;;;;;;;;;;;24.60;50.60;;;;;;1792344;80;21472;-58
2022/04/28 12:46:34;;;;;;;6.05;2.75;;;24.60;50.20;;;;;;1789414;80;20120;-58
2022/04/28 12:49:05;;;;;;;5.33;2.33;;;24.60;50.20;;;;;;1789568;80;21495;-58
2022/04/28 12:51:49;;;;;;;7.22;2.33;;;24.60;50.50;;;;;;1789070;80;21573;-58
2022/04/28 12:54:23;;;;;;;6.25;2.30;;;24.60;50.40;;;;;;1789418;80;21045;-58
2022/04/28 12:57:02;;;;;;;11.78;2.50;;;24.60;50.30;;;;;;1789739;80;21495;-58
2022/04/28 12:59:33;;;;;;;4.20;2.40;;;24.60;50.00;;;;;;1788792;80;21065;-58
2022/04/28 13:02:02;;;;;;;7.75;3.62;;;24.50;49.60;;;;;;1789078;80;21467;-58
2022/04/28 13:04:32;;;;;;;7.20;4.55;;;24.50;49.60;;;;;;1789415;80;21057;-58
2022/04/28 13:07:02;;;;;;;6.80;2.83;;;24.40;49.80;;;;;;1789397;80;21574;-58
2022/04/28 13:09:31;;;;;;;10.25;3.90;;;24.30;50.00;;;;;;1789472;80;21053;-58
2022/04/28 13:12:00;;;;;;;11.70;3.37;;;24.30;50.50;;;;;;1789415;80;21124;-58
2022/04/28 13:14:29;;;;;;;7.08;2.65;;;24.30;50.50;;;;;;1789479;80;21116;-58
2022/04/28 13:16:59;;;;;;;3.95;2.20;;;24.30;50.70;;;;;;1789428;80;21073;-58
2022/04/28 13:19:29;;;;;;;7.05;2.65;;;24.30;50.70;;;;;;1789433;80;21120;-58
2022/04/28 13:21:58;;;;;;;9.85;3.27;;;24.40;50.80;;;;;;1789383;80;21053;-59
2022/04/28 13:24:28;;;;;;;20.40;4.30;;;24.40;50.70;;;;;;1789511;80;21049;-58
2022/04/28 13:26:59;;;;;;;11.90;4.17;;;24.50;50.60;;;;;;1789771;79;21119;-58
2022/04/28 13:29:27;;;;;;;7.58;3.10;;;24.50;50.50;;;;;;1790322;79;21151;-58
2022/04/28 13:31:58;;;;;;;5.92;2.20;;;24.50;50.40;;;;;;1790867;80;21558;-58
2022/04/28 13:34:28;;;;;;;9.15;2.72;;;24.50;50.30;;;;;;1790874;80;21499;-58
2022/04/28 13:36:57;;;;;;;6.28;3.02;;;24.50;50.30;;;;;;1790793;80;21148;-58
2022/04/28 13:39:26;;;;;;;14.00;5.12;;;24.40;50.70;;;;;;1790758;80;21170;-58
2022/04/28 13:41:56;;;;;;;13.40;6.55;;;24.30;50.80;;;;;;1790806;80;21053;-58
2022/04/28 13:44:26;;;;;;;7.92;5.62;;;24.30;50.80;;;;;;1790800;80;21053;-58
2022/04/28 13:46:56;;;;;;;26.82;11.38;;;24.30;50.40;;;;;;1790906;80;21108;-58